sensor_id;sensor_type;location;lat;lon;timestamp;P1;durP1;ratioP1;P2;durP2;ratioP2
40871;SDS011;26591;43.264;26.940;2023-05-21T00:00:43;10.63;;;5.03;;
40871;SDS011;26591;43.264;26.940;2023-05-21T00:03:10;13.15;;;5.85;;
40871;SDS011;26591;43.264;26.940;2023-05-21T00:05:40;8.88;;;5.20;;
40871;SDS011;26591;43.264;26.940;2023-05-21T00:08:07;10.52;;;5.28;;
40871;SDS011;26591;43.264;26.940;2023-05-21T00:10:32;9.80;;;5.53;;
40871;SDS011;26591;43.264;26.940;2023-05-21T00:12:58;8.10;;;5.05;;
40871;SDS011;26591;43.264;26.940;2023-05-21T00:15:23;14.13;;;6.07;;
40871;SDS011;26591;43.264;26.940;2023-05-21T00:17:49;7.45;;;5.28;;
40871;SDS011;26591;43.264;26.940;2023-05-21T00:20:14;8.20;;;5.50;;
40871;SDS011;26591;43.264;26.940;2023-05-21T00:22:40;11.95;;;5.18;;
40871;SDS011;26591;43.264;26.940;2023-05-21T00:25:07;8.48;;;5.22;;
40871;SDS011;26591;43.264;26.940;2023-05-21T00:27:34;8.57;;;5.57;;
40871;SDS011;26591;43.264;26.940;2023-05-21T00:29:59;10.43;;;5.28;;
40871;SDS011;26591;43.264;26.940;2023-05-21T00:32:25;12.00;;;5.88;;
40871;SDS011;26591;43.264;26.940;2023-05-21T00:34:50;7.80;;;5.00;;
40871;SDS011;26591;43.264;26.940;2023-05-21T00:37:16;11.00;;;5.95;;
40871;SDS011;26591;43.264;26.940;2023-05-21T00:39:42;8.35;;;6.13;;
40871;SDS011;26591;43.264;26.940;2023-05-21T00:42:07;9.18;;;5.50;;
40871;SDS011;26591;43.264;26.940;2023-05-21T00:44:33;11.45;;;5.78;;
40871;SDS011;26591;43.264;26.940;2023-05-21T00:47:02;9.57;;;5.40;;
40871;SDS011;26591;43.264;26.940;2023-05-21T00:49:28;9.65;;;5.47;;
40871;SDS011;26591;43.264;26.940;2023-05-21T00:51:54;12.07;;;5.90;;
40871;SDS011;26591;43.264;26.940;2023-05-21T00:54:20;10.50;;;5.65;;
40871;SDS011;26591;43.264;26.940;2023-05-21T00:56:47;13.02;;;5.82;;
40871;SDS011;26591;43.264;26.940;2023-05-21T00:59:16;7.53;;;5.38;;
40871;SDS011;26591;43.264;26.940;2023-05-21T01:01:42;13.48;;;5.85;;
40871;SDS011;26591;43.264;26.940;2023-05-21T01:04:09;16.00;;;6.30;;
40871;SDS011;26591;43.264;26.940;2023-05-21T01:06:36;10.77;;;5.95;;
40871;SDS011;26591;43.264;26.940;2023-05-21T01:09:02;12.77;;;5.65;;
40871;SDS011;26591;43.264;26.940;2023-05-21T01:12:02;11.85;;;5.82;;
40871;SDS011;26591;43.264;26.940;2023-05-21T01:14:21;8.65;;;5.57;;
40871;SDS011;26591;43.264;26.940;2023-05-21T01:16:48;14.88;;;5.65;;
40871;SDS011;26591;43.264;26.940;2023-05-21T01:19:16;11.52;;;5.78;;
40871;SDS011;26591;43.264;26.940;2023-05-21T01:22:05;11.13;;;5.40;;
40871;SDS011;26591;43.264;26.940;2023-05-21T01:24:32;10.23;;;5.60;;
40871;SDS011;26591;43.264;26.940;2023-05-21T01:26:58;10.82;;;6.10;;
40871;SDS011;26591;43.264;26.940;2023-05-21T01:29:25;9.80;;;5.65;;
40871;SDS011;26591;43.264;26.940;2023-05-21T01:34:39;13.48;;;6.60;;
40871;SDS011;26591;43.264;26.940;2023-05-21T01:40:14;9.30;;;5.60;;
40871;SDS011;26591;43.264;26.940;2023-05-21T01:42:47;7.88;;;5.70;;
40871;SDS011;26591;43.264;26.940;2023-05-21T01:45:14;8.13;;;5.53;;
40871;SDS011;26591;43.264;26.940;2023-05-21T01:47:40;12.80;;;6.30;;
40871;SDS011;26591;43.264;26.940;2023-05-21T01:50:14;13.50;;;5.93;;
40871;SDS011;26591;43.264;26.940;2023-05-21T01:52:50;9.32;;;6.25;;
40871;SDS011;26591;43.264;26.940;2023-05-21T01:55:17;11.05;;;5.88;;
40871;SDS011;26591;43.264;26.940;2023-05-21T01:57:43;13.05;;;5.97;;
40871;SDS011;26591;43.264;26.940;2023-05-21T02:00:09;9.68;;;5.70;;
40871;SDS011;26591;43.264;26.940;2023-05-21T02:02:35;12.38;;;6.25;;
40871;SDS011;26591;43.264;26.940;2023-05-21T02:05:01;11.20;;;6.00;;
40871;SDS011;26591;43.264;26.940;2023-05-21T02:07:26;8.88;;;5.70;;
40871;SDS011;26591;43.264;26.940;2023-05-21T02:09:53;10.05;;;6.07;;
40871;SDS011;26591;43.264;26.940;2023-05-21T02:12:18;9.80;;;6.05;;
40871;SDS011;26591;43.264;26.940;2023-05-21T02:14:44;7.85;;;6.10;;
40871;SDS011;26591;43.264;26.940;2023-05-21T02:17:14;12.93;;;6.28;;
40871;SDS011;26591;43.264;26.940;2023-05-21T02:19:41;10.65;;;6.15;;
40871;SDS011;26591;43.264;26.940;2023-05-21T02:22:09;8.43;;;5.95;;
40871;SDS011;26591;43.264;26.940;2023-05-21T02:24:35;11.48;;;5.80;;
40871;SDS011;26591;43.264;26.940;2023-05-21T02:27:00;10.77;;;6.60;;
40871;SDS011;26591;43.264;26.940;2023-05-21T02:29:27;11.38;;;6.68;;
40871;SDS011;26591;43.264;26.940;2023-05-21T02:31:52;11.77;;;6.45;;
40871;SDS011;26591;43.264;26.940;2023-05-21T02:34:18;15.80;;;6.50;;
40871;SDS011;26591;43.264;26.940;2023-05-21T02:36:45;10.23;;;6.28;;
40871;SDS011;26591;43.264;26.940;2023-05-21T02:39:17;11.95;;;6.80;;
40871;SDS011;26591;43.264;26.940;2023-05-21T02:41:44;21.73;;;6.32;;
40871;SDS011;26591;43.264;26.940;2023-05-21T02:44:10;12.27;;;6.10;;
40871;SDS011;26591;43.264;26.940;2023-05-21T02:46:35;11.80;;;6.53;;
40871;SDS011;26591;43.264;26.940;2023-05-21T02:49:01;13.65;;;6.05;;
40871;SDS011;26591;43.264;26.940;2023-05-21T02:51:26;13.38;;;6.97;;
40871;SDS011;26591;43.264;26.940;2023-05-21T02:53:52;14.43;;;6.30;;
40871;SDS011;26591;43.264;26.940;2023-05-21T02:56:17;10.60;;;6.72;;
40871;SDS011;26591;43.264;26.940;2023-05-21T02:58:44;12.98;;;6.63;;
40871;SDS011;26591;43.264;26.940;2023-05-21T03:01:09;8.73;;;6.30;;
40871;SDS011;26591;43.264;26.940;2023-05-21T03:03:35;13.40;;;6.57;;
40871;SDS011;26591;43.264;26.940;2023-05-21T03:06:00;12.95;;;6.82;;
40871;SDS011;26591;43.264;26.940;2023-05-21T03:08:27;7.93;;;6.10;;
40871;SDS011;26591;43.264;26.940;2023-05-21T03:10:52;14.77;;;6.80;;
40871;SDS011;26591;43.264;26.940;2023-05-21T03:13:18;13.00;;;6.82;;
40871;SDS011;26591;43.264;26.940;2023-05-21T03:15:43;12.45;;;6.72;;
40871;SDS011;26591;43.264;26.940;2023-05-21T03:18:10;11.73;;;6.10;;
40871;SDS011;26591;43.264;26.940;2023-05-21T03:20:36;10.45;;;6.20;;
40871;SDS011;26591;43.264;26.940;2023-05-21T03:23:07;12.50;;;6.88;;
40871;SDS011;26591;43.264;26.940;2023-05-21T03:25:33;12.02;;;6.32;;
40871;SDS011;26591;43.264;26.940;2023-05-21T03:28:00;14.32;;;6.30;;
40871;SDS011;26591;43.264;26.940;2023-05-21T03:30:26;8.63;;;6.15;;
40871;SDS011;26591;43.264;26.940;2023-05-21T03:32:52;12.60;;;6.28;;
40871;SDS011;26591;43.264;26.940;2023-05-21T03:35:17;9.65;;;5.65;;
40871;SDS011;26591;43.264;26.940;2023-05-21T03:37:43;16.67;;;5.63;;
40871;SDS011;26591;43.264;26.940;2023-05-21T03:40:08;10.48;;;6.03;;
40871;SDS011;26591;43.264;26.940;2023-05-21T03:42:35;10.68;;;5.75;;
40871;SDS011;26591;43.264;26.940;2023-05-21T03:45:00;13.65;;;5.93;;
40871;SDS011;26591;43.264;26.940;2023-05-21T03:47:27;10.98;;;5.60;;
40871;SDS011;26591;43.264;26.940;2023-05-21T03:49:52;11.70;;;5.07;;
40871;SDS011;26591;43.264;26.940;2023-05-21T03:52:18;10.85;;;6.22;;
40871;SDS011;26591;43.264;26.940;2023-05-21T03:54:43;11.88;;;5.82;;
40871;SDS011;26591;43.264;26.940;2023-05-21T03:57:09;9.38;;;5.72;;
40871;SDS011;26591;43.264;26.940;2023-05-21T03:59:34;12.85;;;5.68;;
40871;SDS011;26591;43.264;26.940;2023-05-21T04:02:00;11.52;;;5.22;;
40871;SDS011;26591;43.264;26.940;2023-05-21T04:04:25;17.65;;;6.00;;
40871;SDS011;26591;43.264;26.940;2023-05-21T04:06:53;15.60;;;5.72;;
40871;SDS011;26591;43.264;26.940;2023-05-21T04:09:19;19.45;;;5.78;;
40871;SDS011;26591;43.264;26.940;2023-05-21T04:11:45;10.50;;;4.90;;
40871;SDS011;26591;43.264;26.940;2023-05-21T04:14:11;14.23;;;5.32;;
40871;SDS011;26591;43.264;26.940;2023-05-21T04:16:37;11.07;;;5.15;;
40871;SDS011;26591;43.264;26.940;2023-05-21T04:19:03;8.98;;;4.47;;
40871;SDS011;26591;43.264;26.940;2023-05-21T04:21:29;11.75;;;5.30;;
40871;SDS011;26591;43.264;26.940;2023-05-21T04:23:56;9.70;;;4.60;;
40871;SDS011;26591;43.264;26.940;2023-05-21T04:26:24;11.82;;;4.20;;
40871;SDS011;26591;43.264;26.940;2023-05-21T04:28:50;13.18;;;5.07;;
40871;SDS011;26591;43.264;26.940;2023-05-21T04:31:17;17.25;;;5.20;;
40871;SDS011;26591;43.264;26.940;2023-05-21T04:33:43;10.88;;;4.40;;
40871;SDS011;26591;43.264;26.940;2023-05-21T04:36:10;13.27;;;4.72;;
40871;SDS011;26591;43.264;26.940;2023-05-21T04:38:36;10.88;;;4.75;;
40871;SDS011;26591;43.264;26.940;2023-05-21T04:41:02;10.07;;;4.70;;
40871;SDS011;26591;43.264;26.940;2023-05-21T04:43:28;10.82;;;4.63;;
40871;SDS011;26591;43.264;26.940;2023-05-21T04:45:54;11.95;;;5.03;;
40871;SDS011;26591;43.264;26.940;2023-05-21T04:48:20;9.50;;;4.50;;
40871;SDS011;26591;43.264;26.940;2023-05-21T04:50:48;16.52;;;5.15;;
40871;SDS011;26591;43.264;26.940;2023-05-21T04:53:15;12.38;;;5.32;;
40871;SDS011;26591;43.264;26.940;2023-05-21T04:55:41;11.85;;;4.40;;
40871;SDS011;26591;43.264;26.940;2023-05-21T04:58:07;24.02;;;5.28;;
40871;SDS011;26591;43.264;26.940;2023-05-21T05:00:36;14.45;;;5.50;;
40871;SDS011;26591;43.264;26.940;2023-05-21T05:03:03;12.25;;;5.13;;
40871;SDS011;26591;43.264;26.940;2023-05-21T05:05:29;12.60;;;5.22;;
40871;SDS011;26591;43.264;26.940;2023-05-21T05:07:55;21.88;;;5.57;;
40871;SDS011;26591;43.264;26.940;2023-05-21T05:10:22;12.95;;;4.72;;
40871;SDS011;26591;43.264;26.940;2023-05-21T05:12:47;14.30;;;4.85;;
40871;SDS011;26591;43.264;26.940;2023-05-21T05:15:13;11.65;;;4.82;;
40871;SDS011;26591;43.264;26.940;2023-05-21T05:17:38;6.18;;;4.25;;
40871;SDS011;26591;43.264;26.940;2023-05-21T05:20:05;7.68;;;3.75;;
40871;SDS011;26591;43.264;26.940;2023-05-21T05:22:32;9.77;;;5.30;;
40871;SDS011;26591;43.264;26.940;2023-05-21T05:24:57;14.80;;;5.50;;
40871;SDS011;26591;43.264;26.940;2023-05-21T05:27:23;9.20;;;4.05;;
40871;SDS011;26591;43.264;26.940;2023-05-21T05:29:48;16.88;;;4.25;;
40871;SDS011;26591;43.264;26.940;2023-05-21T05:32:14;15.55;;;5.07;;
40871;SDS011;26591;43.264;26.940;2023-05-21T05:34:39;6.28;;;4.10;;
40871;SDS011;26591;43.264;26.940;2023-05-21T05:37:07;16.75;;;4.40;;
40871;SDS011;26591;43.264;26.940;2023-05-21T05:39:33;9.13;;;3.92;;
40871;SDS011;26591;43.264;26.940;2023-05-21T05:44:55;7.60;;;4.05;;
40871;SDS011;26591;43.264;26.940;2023-05-21T05:47:21;8.23;;;3.90;;
40871;SDS011;26591;43.264;26.940;2023-05-21T05:49:46;6.90;;;3.53;;
40871;SDS011;26591;43.264;26.940;2023-05-21T05:52:12;14.75;;;3.97;;
40871;SDS011;26591;43.264;26.940;2023-05-21T05:54:38;9.20;;;3.53;;
40871;SDS011;26591;43.264;26.940;2023-05-21T05:57:03;8.63;;;3.80;;
40871;SDS011;26591;43.264;26.940;2023-05-21T05:59:29;6.85;;;3.70;;
40871;SDS011;26591;43.264;26.940;2023-05-21T06:01:55;12.20;;;3.70;;
40871;SDS011;26591;43.264;26.940;2023-05-21T06:04:20;8.30;;;3.83;;
40871;SDS011;26591;43.264;26.940;2023-05-21T06:06:46;6.00;;;3.67;;
40871;SDS011;26591;43.264;26.940;2023-05-21T06:09:12;10.50;;;3.75;;
40871;SDS011;26591;43.264;26.940;2023-05-21T06:11:37;9.98;;;3.90;;
40871;SDS011;26591;43.264;26.940;2023-05-21T06:14:03;17.30;;;3.70;;
40871;SDS011;26591;43.264;26.940;2023-05-21T06:16:28;9.45;;;4.00;;
40871;SDS011;26591;43.264;26.940;2023-05-21T06:18:55;8.15;;;4.00;;
40871;SDS011;26591;43.264;26.940;2023-05-21T06:21:21;12.57;;;4.00;;
40871;SDS011;26591;43.264;26.940;2023-05-21T06:23:47;11.48;;;4.45;;
40871;SDS011;26591;43.264;26.940;2023-05-21T06:26:12;8.45;;;4.43;;
40871;SDS011;26591;43.264;26.940;2023-05-21T06:28:38;11.85;;;3.95;;
40871;SDS011;26591;43.264;26.940;2023-05-21T06:31:03;9.50;;;4.20;;
40871;SDS011;26591;43.264;26.940;2023-05-21T06:33:29;11.55;;;4.20;;
40871;SDS011;26591;43.264;26.940;2023-05-21T06:35:54;15.40;;;4.97;;
40871;SDS011;26591;43.264;26.940;2023-05-21T06:38:20;12.65;;;3.55;;
40871;SDS011;26591;43.264;26.940;2023-05-21T06:40:48;11.00;;;4.35;;
40871;SDS011;26591;43.264;26.940;2023-05-21T06:43:17;20.40;;;4.72;;
40871;SDS011;26591;43.264;26.940;2023-05-21T06:45:42;10.80;;;3.75;;
40871;SDS011;26591;43.264;26.940;2023-05-21T06:48:08;11.13;;;4.15;;
40871;SDS011;26591;43.264;26.940;2023-05-21T06:50:33;7.15;;;3.72;;
40871;SDS011;26591;43.264;26.940;2023-05-21T06:52:59;10.40;;;3.70;;
40871;SDS011;26591;43.264;26.940;2023-05-21T06:55:25;10.10;;;4.50;;
40871;SDS011;26591;43.264;26.940;2023-05-21T06:57:56;9.00;;;4.55;;
40871;SDS011;26591;43.264;26.940;2023-05-21T07:00:21;8.88;;;4.63;;
40871;SDS011;26591;43.264;26.940;2023-05-21T07:02:47;20.88;;;5.00;;
40871;SDS011;26591;43.264;26.940;2023-05-21T07:05:12;8.52;;;4.32;;
40871;SDS011;26591;43.264;26.940;2023-05-21T07:07:38;16.95;;;4.82;;
40871;SDS011;26591;43.264;26.940;2023-05-21T07:10:04;9.68;;;4.30;;
40871;SDS011;26591;43.264;26.940;2023-05-21T07:12:30;11.13;;;3.90;;
40871;SDS011;26591;43.264;26.940;2023-05-21T07:14:55;11.15;;;4.53;;
40871;SDS011;26591;43.264;26.940;2023-05-21T07:17:23;10.68;;;3.67;;
40871;SDS011;26591;43.264;26.940;2023-05-21T07:19:49;13.40;;;4.05;;
40871;SDS011;26591;43.264;26.940;2023-05-21T07:22:14;7.45;;;3.70;;
40871;SDS011;26591;43.264;26.940;2023-05-21T07:24:40;14.38;;;3.88;;
40871;SDS011;26591;43.264;26.940;2023-05-21T07:27:05;12.55;;;3.72;;
40871;SDS011;26591;43.264;26.940;2023-05-21T07:29:32;10.15;;;3.70;;
40871;SDS011;26591;43.264;26.940;2023-05-21T07:31:58;12.45;;;4.10;;
40871;SDS011;26591;43.264;26.940;2023-05-21T07:34:24;18.88;;;4.05;;
40871;SDS011;26591;43.264;26.940;2023-05-21T07:36:49;8.85;;;3.60;;
40871;SDS011;26591;43.264;26.940;2023-05-21T07:39:15;11.60;;;4.00;;
40871;SDS011;26591;43.264;26.940;2023-05-21T07:41:43;8.40;;;3.92;;
40871;SDS011;26591;43.264;26.940;2023-05-21T07:44:08;12.55;;;4.78;;
40871;SDS011;26591;43.264;26.940;2023-05-21T07:46:35;6.32;;;3.67;;
40871;SDS011;26591;43.264;26.940;2023-05-21T07:49:00;8.05;;;3.80;;
40871;SDS011;26591;43.264;26.940;2023-05-21T07:51:26;13.18;;;4.18;;
40871;SDS011;26591;43.264;26.940;2023-05-21T07:53:52;6.05;;;3.60;;
40871;SDS011;26591;43.264;26.940;2023-05-21T07:56:17;15.82;;;3.53;;
40871;SDS011;26591;43.264;26.940;2023-05-21T08:01:30;8.38;;;3.72;;
40871;SDS011;26591;43.264;26.940;2023-05-21T08:03:57;11.95;;;3.60;;
40871;SDS011;26591;43.264;26.940;2023-05-21T08:06:25;6.55;;;3.70;;
40871;SDS011;26591;43.264;26.940;2023-05-21T08:08:51;6.38;;;3.15;;
40871;SDS011;26591;43.264;26.940;2023-05-21T08:11:18;8.02;;;3.38;;
40871;SDS011;26591;43.264;26.940;2023-05-21T08:13:43;17.48;;;4.13;;
40871;SDS011;26591;43.264;26.940;2023-05-21T08:16:09;8.13;;;3.60;;
40871;SDS011;26591;43.264;26.940;2023-05-21T08:18:35;7.93;;;3.85;;
40871;SDS011;26591;43.264;26.940;2023-05-21T08:21:00;13.85;;;3.72;;
40871;SDS011;26591;43.264;26.940;2023-05-21T08:23:26;7.90;;;4.00;;
40871;SDS011;26591;43.264;26.940;2023-05-21T08:25:51;10.48;;;3.78;;
40871;SDS011;26591;43.264;26.940;2023-05-21T08:28:17;7.10;;;3.70;;
40871;SDS011;26591;43.264;26.940;2023-05-21T08:30:43;12.02;;;3.65;;
40871;SDS011;26591;43.264;26.940;2023-05-21T08:33:08;12.60;;;4.25;;
40871;SDS011;26591;43.264;26.940;2023-05-21T08:35:34;8.65;;;3.92;;
40871;SDS011;26591;43.264;26.940;2023-05-21T08:37:59;14.13;;;3.45;;
40871;SDS011;26591;43.264;26.940;2023-05-21T08:40:25;8.50;;;4.28;;
40871;SDS011;26591;43.264;26.940;2023-05-21T08:42:50;7.95;;;3.90;;
40871;SDS011;26591;43.264;26.940;2023-05-21T08:45:19;7.30;;;3.70;;
40871;SDS011;26591;43.264;26.940;2023-05-21T08:47:46;12.05;;;3.60;;
40871;SDS011;26591;43.264;26.940;2023-05-21T08:50:13;6.40;;;3.50;;
40871;SDS011;26591;43.264;26.940;2023-05-21T08:52:40;10.95;;;4.35;;
40871;SDS011;26591;43.264;26.940;2023-05-21T08:55:06;9.65;;;4.00;;
40871;SDS011;26591;43.264;26.940;2023-05-21T08:57:33;10.70;;;3.45;;
40871;SDS011;26591;43.264;26.940;2023-05-21T08:59:59;12.90;;;3.70;;
40871;SDS011;26591;43.264;26.940;2023-05-21T09:02:26;6.78;;;3.90;;
40871;SDS011;26591;43.264;26.940;2023-05-21T09:04:54;11.35;;;3.90;;
40871;SDS011;26591;43.264;26.940;2023-05-21T09:07:24;9.90;;;4.18;;
40871;SDS011;26591;43.264;26.940;2023-05-21T09:09:54;8.52;;;3.78;;
40871;SDS011;26591;43.264;26.940;2023-05-21T09:12:22;10.45;;;3.85;;
40871;SDS011;26591;43.264;26.940;2023-05-21T09:14:49;9.30;;;4.32;;
40871;SDS011;26591;43.264;26.940;2023-05-21T09:17:15;9.98;;;3.88;;
40871;SDS011;26591;43.264;26.940;2023-05-21T09:22:47;7.05;;;3.22;;
40871;SDS011;26591;43.264;26.940;2023-05-21T09:25:19;12.75;;;3.63;;
40871;SDS011;26591;43.264;26.940;2023-05-21T09:27:48;10.85;;;3.90;;
40871;SDS011;26591;43.264;26.940;2023-05-21T09:30:15;8.85;;;3.38;;
40871;SDS011;26591;43.264;26.940;2023-05-21T09:32:43;9.02;;;4.03;;
40871;SDS011;26591;43.264;26.940;2023-05-21T09:35:11;10.90;;;3.30;;
40871;SDS011;26591;43.264;26.940;2023-05-21T09:37:40;16.20;;;3.45;;
40871;SDS011;26591;43.264;26.940;2023-05-21T09:43:16;7.72;;;3.85;;
40871;SDS011;26591;43.264;26.940;2023-05-21T09:45:51;5.97;;;3.53;;
40871;SDS011;26591;43.264;26.940;2023-05-21T09:48:34;12.15;;;3.20;;
40871;SDS011;26591;43.264;26.940;2023-05-21T09:51:25;11.32;;;3.17;;
40871;SDS011;26591;43.264;26.940;2023-05-21T09:53:54;10.55;;;3.53;;
40871;SDS011;26591;43.264;26.940;2023-05-21T09:56:24;9.82;;;3.35;;
40871;SDS011;26591;43.264;26.940;2023-05-21T09:58:55;13.00;;;3.80;;
40871;SDS011;26591;43.264;26.940;2023-05-21T10:01:25;4.55;;;3.35;;
40871;SDS011;26591;43.264;26.940;2023-05-21T10:03:55;9.70;;;3.28;;
40871;SDS011;26591;43.264;26.940;2023-05-21T10:06:26;7.30;;;2.60;;
40871;SDS011;26591;43.264;26.940;2023-05-21T10:08:53;11.35;;;2.80;;
40871;SDS011;26591;43.264;26.940;2023-05-21T10:11:24;7.90;;;2.85;;
40871;SDS011;26591;43.264;26.940;2023-05-21T10:13:59;5.82;;;3.00;;
40871;SDS011;26591;43.264;26.940;2023-05-21T10:16:28;13.60;;;2.97;;
40871;SDS011;26591;43.264;26.940;2023-05-21T10:18:56;7.00;;;3.13;;
40871;SDS011;26591;43.264;26.940;2023-05-21T10:21:23;9.68;;;3.30;;
40871;SDS011;26591;43.264;26.940;2023-05-21T10:23:50;11.13;;;3.33;;
40871;SDS011;26591;43.264;26.940;2023-05-21T10:26:17;8.07;;;3.25;;
40871;SDS011;26591;43.264;26.940;2023-05-21T10:28:45;13.13;;;3.55;;
40871;SDS011;26591;43.264;26.940;2023-05-21T10:31:12;8.70;;;3.60;;
40871;SDS011;26591;43.264;26.940;2023-05-21T10:33:39;7.75;;;3.33;;
40871;SDS011;26591;43.264;26.940;2023-05-21T10:36:05;14.93;;;4.00;;
40871;SDS011;26591;43.264;26.940;2023-05-21T10:38:31;8.43;;;3.58;;
40871;SDS011;26591;43.264;26.940;2023-05-21T10:40:58;9.05;;;3.25;;
40871;SDS011;26591;43.264;26.940;2023-05-21T10:43:40;4.88;;;3.30;;
40871;SDS011;26591;43.264;26.940;2023-05-21T10:46:52;8.57;;;3.30;;
40871;SDS011;26591;43.264;26.940;2023-05-21T10:57:43;8.35;;;2.65;;
40871;SDS011;26591;43.264;26.940;2023-05-21T11:00:21;7.13;;;2.90;;
40871;SDS011;26591;43.264;26.940;2023-05-21T11:02:49;7.93;;;2.45;;
40871;SDS011;26591;43.264;26.940;2023-05-21T11:05:33;5.93;;;2.83;;
40871;SDS011;26591;43.264;26.940;2023-05-21T11:08:04;5.03;;;2.78;;
40871;SDS011;26591;43.264;26.940;2023-05-21T11:10:38;9.15;;;3.60;;
40871;SDS011;26591;43.264;26.940;2023-05-21T11:13:12;5.20;;;3.03;;
40871;SDS011;26591;43.264;26.940;2023-05-21T11:19:15;7.22;;;3.22;;
40871;SDS011;26591;43.264;26.940;2023-05-21T11:21:11;9.27;;;2.70;;
40871;SDS011;26591;43.264;26.940;2023-05-21T11:26:23;7.13;;;3.10;;
40871;SDS011;26591;43.264;26.940;2023-05-21T11:29:04;7.05;;;2.72;;
40871;SDS011;26591;43.264;26.940;2023-05-21T11:31:31;5.88;;;2.65;;
40871;SDS011;26591;43.264;26.940;2023-05-21T11:37:21;10.48;;;3.15;;
40871;SDS011;26591;43.264;26.940;2023-05-21T11:40:21;5.57;;;3.05;;
40871;SDS011;26591;43.264;26.940;2023-05-21T11:42:50;6.05;;;2.88;;
40871;SDS011;26591;43.264;26.940;2023-05-21T11:45:18;5.43;;;2.70;;
40871;SDS011;26591;43.264;26.940;2023-05-21T11:47:49;8.65;;;2.72;;
40871;SDS011;26591;43.264;26.940;2023-05-21T11:50:16;7.82;;;2.92;;
40871;SDS011;26591;43.264;26.940;2023-05-21T11:52:42;8.52;;;3.03;;
40871;SDS011;26591;43.264;26.940;2023-05-21T11:55:09;10.35;;;2.67;;
40871;SDS011;26591;43.264;26.940;2023-05-21T11:57:35;7.63;;;2.40;;
40871;SDS011;26591;43.264;26.940;2023-05-21T12:00:01;5.85;;;2.60;;
40871;SDS011;26591;43.264;26.940;2023-05-21T12:02:36;8.73;;;2.60;;
40871;SDS011;26591;43.264;26.940;2023-05-21T12:05:05;9.82;;;2.95;;
40871;SDS011;26591;43.264;26.940;2023-05-21T12:07:31;8.23;;;2.90;;
40871;SDS011;26591;43.264;26.940;2023-05-21T12:09:56;7.13;;;2.75;;
40871;SDS011;26591;43.264;26.940;2023-05-21T12:12:25;7.22;;;2.70;;
40871;SDS011;26591;43.264;26.940;2023-05-21T12:14:52;5.78;;;2.80;;
40871;SDS011;26591;43.264;26.940;2023-05-21T12:17:22;11.25;;;2.90;;
40871;SDS011;26591;43.264;26.940;2023-05-21T12:19:52;7.80;;;2.70;;
40871;SDS011;26591;43.264;26.940;2023-05-21T12:22:19;6.57;;;2.60;;
40871;SDS011;26591;43.264;26.940;2023-05-21T12:24:45;8.27;;;2.70;;
40871;SDS011;26591;43.264;26.940;2023-05-21T12:27:13;9.85;;;2.50;;
40871;SDS011;26591;43.264;26.940;2023-05-21T12:29:44;4.53;;;2.58;;
40871;SDS011;26591;43.264;26.940;2023-05-21T12:32:11;5.57;;;2.60;;
40871;SDS011;26591;43.264;26.940;2023-05-21T12:37:12;4.57;;;2.65;;
40871;SDS011;26591;43.264;26.940;2023-05-21T12:39:44;6.95;;;2.88;;
40871;SDS011;26591;43.264;26.940;2023-05-21T12:42:12;10.43;;;2.85;;
40871;SDS011;26591;43.264;26.940;2023-05-21T12:44:39;7.43;;;2.72;;
40871;SDS011;26591;43.264;26.940;2023-05-21T12:47:23;4.90;;;2.55;;
40871;SDS011;26591;43.264;26.940;2023-05-21T12:49:56;4.35;;;2.53;;
40871;SDS011;26591;43.264;26.940;2023-05-21T12:52:24;2.67;;;2.35;;
40871;SDS011;26591;43.264;26.940;2023-05-21T12:54:54;7.13;;;2.53;;
40871;SDS011;26591;43.264;26.940;2023-05-21T12:57:23;7.35;;;2.60;;
40871;SDS011;26591;43.264;26.940;2023-05-21T12:59:51;4.22;;;2.90;;
40871;SDS011;26591;43.264;26.940;2023-05-21T13:02:22;10.23;;;2.92;;
40871;SDS011;26591;43.264;26.940;2023-05-21T13:05:02;5.90;;;2.67;;
40871;SDS011;26591;43.264;26.940;2023-05-21T13:07:29;11.43;;;2.63;;
40871;SDS011;26591;43.264;26.940;2023-05-21T13:09:56;9.55;;;2.95;;
40871;SDS011;26591;43.264;26.940;2023-05-21T13:12:22;6.68;;;3.00;;
40871;SDS011;26591;43.264;26.940;2023-05-21T13:14:50;6.95;;;2.50;;
40871;SDS011;26591;43.264;26.940;2023-05-21T13:17:17;7.60;;;2.85;;
40871;SDS011;26591;43.264;26.940;2023-05-21T13:19:48;5.43;;;2.70;;
40871;SDS011;26591;43.264;26.940;2023-05-21T13:22:29;6.13;;;2.70;;
40871;SDS011;26591;43.264;26.940;2023-05-21T13:24:57;6.88;;;2.47;;
40871;SDS011;26591;43.264;26.940;2023-05-21T13:27:23;9.52;;;2.80;;
40871;SDS011;26591;43.264;26.940;2023-05-21T13:29:54;5.80;;;2.45;;
40871;SDS011;26591;43.264;26.940;2023-05-21T13:32:20;6.20;;;2.67;;
40871;SDS011;26591;43.264;26.940;2023-05-21T13:34:46;7.85;;;2.80;;
40871;SDS011;26591;43.264;26.940;2023-05-21T13:37:12;12.20;;;2.50;;
40871;SDS011;26591;43.264;26.940;2023-05-21T13:39:38;9.43;;;3.05;;
40871;SDS011;26591;43.264;26.940;2023-05-21T13:42:04;6.22;;;2.40;;
40871;SDS011;26591;43.264;26.940;2023-05-21T13:44:30;6.63;;;2.95;;
40871;SDS011;26591;43.264;26.940;2023-05-21T13:47:01;8.63;;;3.10;;
40871;SDS011;26591;43.264;26.940;2023-05-21T13:49:27;9.32;;;3.13;;
40871;SDS011;26591;43.264;26.940;2023-05-21T13:51:52;7.63;;;3.03;;
40871;SDS011;26591;43.264;26.940;2023-05-21T13:54:18;7.57;;;3.30;;
40871;SDS011;26591;43.264;26.940;2023-05-21T13:56:43;4.57;;;2.85;;
40871;SDS011;26591;43.264;26.940;2023-05-21T13:59:09;4.35;;;2.58;;
40871;SDS011;26591;43.264;26.940;2023-05-21T14:01:35;8.80;;;2.60;;
40871;SDS011;26591;43.264;26.940;2023-05-21T14:04:00;10.40;;;3.17;;
40871;SDS011;26591;43.264;26.940;2023-05-21T14:06:33;6.33;;;2.70;;
40871;SDS011;26591;43.264;26.940;2023-05-21T14:09:00;6.75;;;2.67;;
40871;SDS011;26591;43.264;26.940;2023-05-21T14:11:26;11.77;;;3.25;;
40871;SDS011;26591;43.264;26.940;2023-05-21T14:13:52;8.07;;;3.00;;
40871;SDS011;26591;43.264;26.940;2023-05-21T14:16:18;8.10;;;3.25;;
40871;SDS011;26591;43.264;26.940;2023-05-21T14:18:46;10.48;;;3.70;;
40871;SDS011;26591;43.264;26.940;2023-05-21T14:21:12;7.65;;;3.00;;
40871;SDS011;26591;43.264;26.940;2023-05-21T14:23:38;7.30;;;2.80;;
40871;SDS011;26591;43.264;26.940;2023-05-21T14:26:03;7.63;;;2.60;;
40871;SDS011;26591;43.264;26.940;2023-05-21T14:28:30;10.73;;;2.95;;
40871;SDS011;26591;43.264;26.940;2023-05-21T14:31:01;16.13;;;2.75;;
40871;SDS011;26591;43.264;26.940;2023-05-21T14:33:27;7.68;;;3.15;;
40871;SDS011;26591;43.264;26.940;2023-05-21T14:35:55;6.05;;;2.80;;
40871;SDS011;26591;43.264;26.940;2023-05-21T14:38:21;9.32;;;3.00;;
40871;SDS011;26591;43.264;26.940;2023-05-21T14:40:46;9.40;;;2.53;;
40871;SDS011;26591;43.264;26.940;2023-05-21T14:43:12;8.73;;;2.90;;
40871;SDS011;26591;43.264;26.940;2023-05-21T14:45:37;6.45;;;2.50;;
40871;SDS011;26591;43.264;26.940;2023-05-21T14:48:03;7.43;;;3.05;;
40871;SDS011;26591;43.264;26.940;2023-05-21T14:50:38;7.22;;;2.70;;
40871;SDS011;26591;43.264;26.940;2023-05-21T14:53:07;10.82;;;2.92;;
40871;SDS011;26591;43.264;26.940;2023-05-21T14:55:34;6.32;;;2.67;;
40871;SDS011;26591;43.264;26.940;2023-05-21T14:58:01;6.20;;;2.95;;
40871;SDS011;26591;43.264;26.940;2023-05-21T15:00:28;7.93;;;3.00;;
40871;SDS011;26591;43.264;26.940;2023-05-21T15:02:54;7.40;;;2.78;;
40871;SDS011;26591;43.264;26.940;2023-05-21T15:05:20;7.97;;;2.65;;
40871;SDS011;26591;43.264;26.940;2023-05-21T15:07:45;4.30;;;2.63;;